Time;durP1;ratioP1;P1;durP2;ratioP2;P2;SDS_P1;SDS_P2;PMS_P1;PMS_P2;Temp;Humidity;BMP_temperature;BMP_pressure;BME280_temperature;BME280_humidity;BME280_pressure;Samples;Min_cycle;Max_cycle;Signal;HPM_P1;HPM_P2
2023/05/21 00:00:40;;;;;;;5.45;4.28;;;15.10;99.90;;;;;;5113711;28;20047;-64
2023/05/21 00:03:12;;;;;;;6.55;4.30;;;15.10;99.90;;;;;;5112820;28;20348;-64
2023/05/21 00:05:39;;;;;;;5.07;4.05;;;15.10;99.90;;;;;;5112404;28;20047;-66
2023/05/21 00:08:05;;;;;;;7.07;4.43;;;15.00;99.90;;;;;;5105692;28;20092;-64
2023/05/21 00:10:32;;;;;;;6.18;4.90;;;15.10;99.90;;;;;;5095907;28;20406;-63
2023/05/21 00:12:58;;;;;;;6.55;4.78;;;15.00;99.90;;;;;;5095537;28;20048;-65
2023/05/21 00:15:24;;;;;;;6.57;4.50;;;15.00;99.90;;;;;;5095348;28;20051;-65
2023/05/21 00:17:51;;;;;;;5.80;4.32;;;15.00;99.90;;;;;;5098616;28;20467;-64
2023/05/21 00:20:17;;;;;;;5.80;4.38;;;15.00;99.90;;;;;;5111913;28;20047;-64
2023/05/21 00:22:44;;;;;;;5.95;3.92;;;15.00;99.90;;;;;;5112468;28;20048;-65
2023/05/21 00:25:11;;;;;;;5.85;4.40;;;15.00;99.90;;;;;;5111855;28;20047;-64
2023/05/21 00:27:37;;;;;;;5.43;4.22;;;15.00;99.90;;;;;;5109689;28;20055;-64
2023/05/21 00:30:04;;;;;;;5.07;4.20;;;14.90;99.90;;;;;;5094830;28;20055;-65
2023/05/21 00:32:30;;;;;;;7.65;4.88;;;15.00;99.90;;;;;;5094983;28;20051;-64
2023/05/21 00:34:57;;;;;;;6.25;4.65;;;14.90;99.90;;;;;;5095207;28;20513;-65
2023/05/21 00:37:23;;;;;;;5.18;4.30;;;14.90;99.90;;;;;;5097290;27;20047;-65
2023/05/21 00:39:50;;;;;;;5.97;4.20;;;14.90;99.90;;;;;;5115170;27;20352;-64
2023/05/21 00:42:16;;;;;;;5.47;4.22;;;14.90;99.90;;;;;;5098571;27;20491;-64
2023/05/21 00:44:44;;;;;;;6.35;4.25;;;14.80;99.90;;;;;;5098741;27;20455;-64
2023/05/21 00:47:12;;;;;;;6.43;4.32;;;14.90;99.90;;;;;;5113331;28;20047;-64
2023/05/21 00:49:38;;;;;;;6.38;4.82;;;14.90;99.90;;;;;;5094895;28;20090;-65
2023/05/21 00:52:06;;;;;;;6.45;4.57;;;14.90;99.90;;;;;;5094773;28;20433;-64
2023/05/21 00:54:32;;;;;;;6.07;4.38;;;14.90;99.90;;;;;;5095111;28;20083;-64
2023/05/21 00:57:00;;;;;;;5.68;4.43;;;14.90;99.90;;;;;;5095505;27;20043;-66
2023/05/21 00:59:26;;;;;;;6.57;4.30;;;14.90;99.90;;;;;;5121414;27;20046;-65
2023/05/21 01:01:54;;;;;;;6.97;5.10;;;14.80;99.90;;;;;;5121965;27;20501;-63
2023/05/21 01:04:24;;;;;;;5.63;4.47;;;14.80;99.90;;;;;;5121882;27;20084;-64
2023/05/21 01:06:52;;;;;;;6.43;4.57;;;14.80;99.90;;;;;;5121477;27;20383;-65
2023/05/21 01:09:19;;;;;;;7.70;4.95;;;14.80;99.90;;;;;;5102250;28;20059;-64
2023/05/21 01:11:47;;;;;;;7.70;4.35;;;14.80;99.90;;;;;;5101246;28;20048;-64
2023/05/21 01:14:15;;;;;;;6.97;4.78;;;14.80;99.90;;;;;;5119694;28;20058;-65
2023/05/21 01:16:45;;;;;;;6.30;4.45;;;14.80;99.90;;;;;;5100972;28;20058;-64
2023/05/21 01:19:15;;;;;;;5.82;4.47;;;14.80;99.90;;;;;;5119247;27;20061;-64
2023/05/21 01:21:46;;;;;;;7.30;4.70;;;14.80;99.90;;;;;;5104889;27;20051;-64
2023/05/21 01:24:13;;;;;;;5.97;4.63;;;14.80;99.90;;;;;;5105177;27;20478;-63
2023/05/21 01:26:41;;;;;;;5.13;4.40;;;14.80;99.90;;;;;;5139810;27;20065;-64
2023/05/21 01:29:11;;;;;;;6.75;5.13;;;14.80;99.90;;;;;;5104143;28;20157;-64
2023/05/21 01:32:02;;;;;;;6.15;4.50;;;14.70;99.90;;;;;;5101770;28;20509;-63
2023/05/21 01:34:56;;;;;;;6.00;4.38;;;14.80;99.90;;;;;;5101331;28;20051;-64
2023/05/21 01:37:33;;;;;;;6.53;4.38;;;14.70;99.90;;;;;;5093884;27;20051;-64
2023/05/21 01:40:10;;;;;;;7.80;5.32;;;14.70;99.90;;;;;;5122071;27;20451;-63
2023/05/21 01:42:40;;;;;;;5.50;4.55;;;14.70;99.90;;;;;;5122166;27;20123;-62
2023/05/21 01:45:08;;;;;;;6.15;4.95;;;14.70;99.90;;;;;;5121998;27;20051;-63
2023/05/21 01:47:36;;;;;;;6.30;5.03;;;14.60;99.90;;;;;;5117154;28;20050;-62
2023/05/21 01:50:07;;;;;;;6.80;4.80;;;14.60;99.90;;;;;;5084784;28;20056;-62
2023/05/21 01:52:33;;;;;;;6.03;4.70;;;14.60;99.90;;;;;;5101393;28;20051;-64
2023/05/21 01:54:59;;;;;;;8.20;4.95;;;14.60;99.90;;;;;;5119257;28;20486;-63
2023/05/21 01:57:26;;;;;;;7.07;5.30;;;14.60;99.90;;;;;;5103303;27;20394;-62
2023/05/21 01:59:52;;;;;;;5.47;4.65;;;14.60;99.90;;;;;;5104913;27;20055;-62
2023/05/21 02:02:19;;;;;;;6.38;4.78;;;14.60;99.90;;;;;;5121439;27;20081;-63
2023/05/21 02:04:46;;;;;;;7.45;5.25;;;14.60;99.90;;;;;;5104381;27;20432;-63
2023/05/21 02:07:17;;;;;;;5.88;4.60;;;14.50;99.90;;;;;;5120586;27;20039;-62
2023/05/21 02:09:43;;;;;;;6.68;4.55;;;14.60;99.90;;;;;;5119285;27;20051;-65
2023/05/21 02:12:10;;;;;;;7.63;4.57;;;14.50;99.90;;;;;;5118395;27;20039;-62
2023/05/21 02:14:37;;;;;;;7.00;4.90;;;14.50;99.90;;;;;;5115325;27;20051;-61
2023/05/21 02:17:04;;;;;;;6.43;4.88;;;14.50;99.90;;;;;;5097256;28;20047;-63
2023/05/21 02:19:30;;;;;;;5.68;4.97;;;14.50;99.90;;;;;;5100210;27;20054;-63
2023/05/21 02:21:57;;;;;;;5.55;4.60;;;14.50;99.90;;;;;;5118313;27;20095;-62
2023/05/21 02:24:23;;;;;;;5.97;4.50;;;14.40;99.90;;;;;;5118054;27;20140;-63
2023/05/21 02:26:51;;;;;;;6.68;4.63;;;14.40;99.90;;;;;;5117900;27;20108;-63
2023/05/21 02:29:17;;;;;;;7.18;4.65;;;14.40;99.90;;;;;;5098978;28;20573;-61
2023/05/21 02:31:43;;;;;;;6.18;4.75;;;14.40;99.90;;;;;;5080970;28;20043;-65
2023/05/21 02:34:09;;;;;;;6.20;5.35;;;14.30;99.90;;;;;;5097806;28;20048;-65
2023/05/21 02:36:36;;;;;;;6.97;5.05;;;14.40;99.90;;;;;;5097439;28;20071;-63
2023/05/21 02:39:02;;;;;;;8.25;5.03;;;14.40;99.90;;;;;;5113588;27;20047;-62
2023/05/21 02:41:28;;;;;;;7.28;4.65;;;14.40;99.90;;;;;;5117764;27;20459;-62
2023/05/21 02:43:55;;;;;;;5.90;4.97;;;14.30;99.90;;;;;;5118154;27;20054;-62
2023/05/21 02:46:21;;;;;;;7.47;4.75;;;14.40;99.90;;;;;;5100404;27;20048;-63
2023/05/21 02:48:47;;;;;;;6.97;5.00;;;14.30;99.90;;;;;;5099796;27;20243;-63
2023/05/21 02:51:13;;;;;;;6.97;5.35;;;14.30;99.90;;;;;;5117397;27;20058;-63
2023/05/21 02:53:40;;;;;;;6.50;4.63;;;14.40;99.90;;;;;;5100708;27;20043;-63
2023/05/21 02:56:06;;;;;;;8.57;5.63;;;14.30;99.90;;;;;;5135594;27;20043;-62
2023/05/21 02:58:32;;;;;;;7.55;5.75;;;14.30;99.90;;;;;;5116615;27;20054;-63
2023/05/21 03:00:59;;;;;;;6.47;5.05;;;14.40;99.90;;;;;;5117518;27;20055;-64
2023/05/21 03:03:25;;;;;;;5.82;4.68;;;14.30;99.90;;;;;;5117970;27;20047;-63
2023/05/21 03:05:51;;;;;;;8.35;4.97;;;14.30;99.90;;;;;;5099770;27;20058;-62
2023/05/21 03:08:18;;;;;;;7.93;5.50;;;14.30;99.90;;;;;;5090504;28;20406;-64
2023/05/21 03:10:44;;;;;;;6.90;4.88;;;14.30;99.90;;;;;;5097094;28;20048;-63
2023/05/21 03:13:10;;;;;;;8.52;5.53;;;14.30;99.90;;;;;;5096857;28;20043;-64
2023/05/21 03:15:37;;;;;;;5.90;5.05;;;14.30;99.90;;;;;;5079824;28;20055;-65
2023/05/21 03:18:04;;;;;;;8.32;5.10;;;14.30;99.90;;;;;;5104303;27;20043;-63
2023/05/21 03:20:30;;;;;;;7.15;4.72;;;14.30;99.90;;;;;;5099643;27;20047;-64
2023/05/21 03:22:57;;;;;;;6.55;5.13;;;14.30;99.90;;;;;;5117063;27;20356;-63
2023/05/21 03:25:23;;;;;;;7.40;5.22;;;14.30;99.90;;;;;;5116952;27;20058;-62
2023/05/21 03:27:51;;;;;;;9.00;5.80;;;14.30;99.90;;;;;;5098824;27;20050;-63
2023/05/21 03:30:17;;;;;;;6.75;5.22;;;14.30;99.90;;;;;;5099480;27;20047;-63
2023/05/21 03:32:45;;;;;;;7.97;4.88;;;14.40;99.90;;;;;;5100062;27;20043;-65
2023/05/21 03:35:11;;;;;;;7.32;5.43;;;14.30;99.90;;;;;;5116940;27;20051;-63
2023/05/21 03:37:38;;;;;;;7.38;4.85;;;14.30;99.90;;;;;;5112585;28;20092;-62
2023/05/21 03:40:05;;;;;;;6.22;4.90;;;14.30;99.90;;;;;;5096797;28;20052;-63
2023/05/21 03:42:31;;;;;;;7.45;4.95;;;14.30;99.90;;;;;;5096173;28;20089;-63
2023/05/21 03:44:57;;;;;;;7.78;4.95;;;14.30;99.90;;;;;;5096401;28;20051;-63
2023/05/21 03:47:23;;;;;;;5.95;4.82;;;14.30;99.90;;;;;;5097113;27;20059;-64
2023/05/21 03:49:50;;;;;;;7.05;5.10;;;14.30;99.90;;;;;;5116524;27;20047;-64
2023/05/21 03:52:16;;;;;;;7.47;5.20;;;14.20;99.90;;;;;;5116470;27;20171;-63
2023/05/21 03:54:42;;;;;;;6.80;5.18;;;14.20;99.90;;;;;;5116787;27;20047;-62
2023/05/21 03:57:09;;;;;;;7.20;5.07;;;14.20;99.90;;;;;;5115665;27;20082;-65
2023/05/21 03:59:35;;;;;;;7.20;5.80;;;14.20;99.90;;;;;;5079713;28;20050;-63
2023/05/21 04:02:02;;;;;;;6.20;5.22;;;14.20;99.90;;;;;;5095630;28;20058;-64
2023/05/21 04:04:28;;;;;;;8.25;5.85;;;14.20;99.90;;;;;;5079287;28;20059;-63
2023/05/21 04:06:54;;;;;;;10.30;5.30;;;14.20;99.90;;;;;;5095748;28;20065;-64
2023/05/21 04:09:21;;;;;;;6.85;5.25;;;14.20;99.90;;;;;;5131359;27;20057;-64
2023/05/21 04:11:47;;;;;;;9.68;5.82;;;14.20;99.90;;;;;;5116372;27;20301;-62
2023/05/21 04:14:13;;;;;;;7.25;5.60;;;14.20;99.90;;;;;;5115930;27;20047;-65
2023/05/21 04:16:42;;;;;;;8.65;6.68;;;14.30;99.90;;;;;;5098905;27;20043;-64
2023/05/21 04:19:09;;;;;;;6.65;5.18;;;14.20;99.90;;;;;;5099609;28;20047;-64
2023/05/21 04:21:35;;;;;;;9.15;5.88;;;14.20;99.90;;;;;;5095473;28;20468;-62
2023/05/21 04:24:02;;;;;;;9.38;5.68;;;14.20;99.90;;;;;;5095978;28;20055;-64
2023/05/21 04:26:33;;;;;;;9.13;5.80;;;14.30;99.90;;;;;;5095042;28;20089;-63
2023/05/21 04:29:02;;;;;;;7.68;5.60;;;14.30;99.90;;;;;;5095452;28;20375;-64
2023/05/21 04:31:31;;;;;;;8.88;5.72;;;14.30;99.90;;;;;;5078273;28;20054;-64
2023/05/21 04:33:58;;;;;;;7.50;5.90;;;14.30;99.90;;;;;;5078238;28;20044;-63
2023/05/21 04:36:24;;;;;;;7.60;5.75;;;14.30;99.90;;;;;;5094682;28;20132;-63
2023/05/21 04:38:50;;;;;;;8.35;5.75;;;14.30;99.90;;;;;;5095524;28;20044;-64
2023/05/21 04:41:17;;;;;;;8.57;6.50;;;14.30;99.90;;;;;;5095429;28;20047;-62
2023/05/21 04:43:44;;;;;;;6.80;5.78;;;14.20;99.90;;;;;;5078596;28;20054;-63
2023/05/21 04:46:10;;;;;;;8.77;6.38;;;14.30;99.90;;;;;;5094961;28;20142;-64
2023/05/21 04:48:36;;;;;;;6.75;5.65;;;14.30;99.90;;;;;;5106281;27;20120;-64
2023/05/21 04:51:04;;;;;;;7.38;6.65;;;14.40;99.90;;;;;;5115716;27;20473;-63
2023/05/21 04:53:30;;;;;;;8.23;5.72;;;14.30;99.90;;;;;;5115234;28;20100;-64
2023/05/21 04:55:58;;;;;;;7.85;5.80;;;14.30;99.90;;;;;;5098246;28;20051;-63
2023/05/21 04:58:25;;;;;;;10.15;5.97;;;14.30;99.90;;;;;;5088644;28;20086;-62
2023/05/21 05:00:52;;;;;;;8.70;6.15;;;14.30;99.90;;;;;;5094817;28;20104;-63
2023/05/21 05:03:18;;;;;;;10.00;6.10;;;14.30;99.90;;;;;;5095473;28;20051;-63
2023/05/21 05:05:45;;;;;;;11.07;5.47;;;14.30;99.90;;;;;;5094605;28;20047;-62
2023/05/21 05:08:11;;;;;;;7.40;5.80;;;14.30;99.90;;;;;;5095539;28;20507;-62
2023/05/21 05:10:38;;;;;;;10.02;6.22;;;14.40;99.90;;;;;;5094988;28;20059;-62
2023/05/21 05:13:04;;;;;;;8.70;5.72;;;14.40;99.90;;;;;;5095009;28;20055;-62
2023/05/21 05:15:30;;;;;;;8.02;6.82;;;14.40;99.90;;;;;;5094660;28;20407;-64
2023/05/21 05:17:56;;;;;;;8.23;6.18;;;14.40;99.90;;;;;;5100765;28;20099;-62
2023/05/21 05:20:23;;;;;;;6.93;5.75;;;14.40;99.90;;;;;;5115105;28;20051;-64
2023/05/21 05:22:49;;;;;;;8.98;6.05;;;14.50;99.90;;;;;;5115513;28;20044;-62
2023/05/21 05:25:15;;;;;;;8.75;5.47;;;14.40;99.90;;;;;;5115132;28;20055;-62
2023/05/21 05:27:42;;;;;;;8.77;6.00;;;14.50;99.90;;;;;;5094404;28;20047;-63
2023/05/21 05:30:09;;;;;;;8.98;5.53;;;14.50;99.90;;;;;;5077964;28;20052;-62
2023/05/21 05:32:35;;;;;;;8.35;5.68;;;14.50;99.90;;;;;;5077832;28;20052;-63
2023/05/21 05:35:02;;;;;;;7.63;5.93;;;14.60;99.90;;;;;;5095180;28;20455;-62
2023/05/21 05:37:28;;;;;;;8.32;5.72;;;14.60;99.90;;;;;;5095366;28;20048;-62
2023/05/21 05:39:54;;;;;;;7.55;5.43;;;14.70;99.90;;;;;;5115442;28;20103;-64
2023/05/21 05:42:21;;;;;;;10.10;5.88;;;14.70;99.90;;;;;;5114973;28;20471;-63
2023/05/21 05:44:47;;;;;;;8.68;5.45;;;14.70;99.90;;;;;;5136558;27;20047;-64
2023/05/21 05:47:13;;;;;;;9.05;5.70;;;14.70;99.90;;;;;;5118814;27;20254;-65
2023/05/21 05:49:39;;;;;;;8.35;5.72;;;14.70;99.90;;;;;;5099260;28;20056;-62
2023/05/21 05:52:06;;;;;;;8.35;6.00;;;14.90;99.90;;;;;;5081651;28;20043;-62
2023/05/21 05:54:32;;;;;;;8.48;5.68;;;14.80;99.90;;;;;;5098575;28;20047;-64
2023/05/21 05:56:58;;;;;;;8.80;6.13;;;14.80;99.90;;;;;;5102832;27;20039;-62
2023/05/21 05:59:25;;;;;;;8.35;5.25;;;14.90;99.90;;;;;;5100498;28;20044;-63
2023/05/21 06:01:51;;;;;;;7.43;5.40;;;14.90;99.90;;;;;;5097700;28;20497;-63
2023/05/21 06:04:17;;;;;;;8.05;5.45;;;14.90;99.90;;;;;;5098030;28;20484;-62
2023/05/21 06:06:43;;;;;;;7.25;5.30;;;14.90;99.90;;;;;;5097274;28;20043;-64
2023/05/21 06:09:10;;;;;;;8.73;5.72;;;14.90;99.90;;;;;;5113228;27;20062;-62
2023/05/21 06:11:37;;;;;;;7.45;5.57;;;15.00;99.90;;;;;;5118149;27;20481;-62
2023/05/21 06:14:03;;;;;;;9.52;5.82;;;15.10;99.90;;;;;;5117869;27;20055;-63
2023/05/21 06:16:30;;;;;;;7.63;5.60;;;15.10;99.90;;;;;;5117640;27;20043;-64
2023/05/21 06:18:56;;;;;;;7.25;5.50;;;15.20;99.90;;;;;;5104320;28;20052;-62
2023/05/21 06:21:22;;;;;;;8.45;6.25;;;15.30;99.90;;;;;;5097290;28;20047;-65
2023/05/21 06:23:49;;;;;;;7.35;5.13;;;15.30;99.90;;;;;;5085952;28;20051;-62
2023/05/21 06:26:17;;;;;;;7.68;5.97;;;15.40;99.90;;;;;;5081809;28;20063;-63
2023/05/21 06:28:44;;;;;;;9.43;5.57;;;15.40;99.90;;;;;;5090375;28;20051;-63
2023/05/21 06:31:10;;;;;;;8.75;5.78;;;15.40;99.90;;;;;;5077005;28;20117;-62
2023/05/21 06:33:36;;;;;;;9.20;5.55;;;15.40;99.90;;;;;;5096708;28;20047;-61
2023/05/21 06:36:03;;;;;;;8.02;6.28;;;15.50;99.90;;;;;;5077885;28;20680;-66
2023/05/21 06:38:29;;;;;;;7.68;5.60;;;15.50;99.90;;;;;;5089902;28;20310;-62
2023/05/21 06:40:57;;;;;;;8.45;5.60;;;15.50;99.90;;;;;;5087071;28;20037;-62
2023/05/21 06:43:23;;;;;;;8.23;5.50;;;15.50;99.90;;;;;;5096605;28;20077;-64
2023/05/21 06:45:50;;;;;;;7.82;5.32;;;15.60;99.90;;;;;;5096287;28;20055;-64
2023/05/21 06:48:16;;;;;;;7.03;4.72;;;15.60;99.90;;;;;;5096202;28;20051;-63
2023/05/21 06:50:43;;;;;;;8.00;6.18;;;15.60;99.90;;;;;;5096379;28;20056;-63
2023/05/21 06:53:09;;;;;;;7.35;5.70;;;15.70;99.90;;;;;;5096285;28;20064;-62
2023/05/21 06:55:36;;;;;;;7.55;5.22;;;15.70;99.90;;;;;;5077225;27;20104;-63
2023/05/21 06:58:02;;;;;;;8.90;5.70;;;15.70;99.90;;;;;;5102706;27;20051;-63
2023/05/21 07:00:28;;;;;;;12.57;5.90;;;15.80;99.90;;;;;;5105560;27;20039;-62
2023/05/21 07:02:54;;;;;;;7.22;5.35;;;15.90;99.90;;;;;;5104398;27;20055;-64
2023/05/21 07:05:21;;;;;;;8.20;6.35;;;15.90;99.90;;;;;;5089522;27;20441;-62
2023/05/21 07:07:47;;;;;;;7.45;5.43;;;15.90;99.90;;;;;;5085954;28;20108;-63
2023/05/21 07:10:13;;;;;;;9.55;5.18;;;16.00;99.90;;;;;;5105109;27;20043;-66
2023/05/21 07:12:40;;;;;;;8.18;5.70;;;16.00;99.90;;;;;;5088647;27;20044;-64
2023/05/21 07:15:07;;;;;;;8.75;5.60;;;16.10;99.90;;;;;;5105002;27;20044;-62
2023/05/21 07:17:34;;;;;;;8.85;5.68;;;16.20;99.90;;;;;;5099589;27;20069;-63
2023/05/21 07:20:00;;;;;;;8.02;5.43;;;16.30;99.90;;;;;;5104355;27;20044;-62
2023/05/21 07:22:27;;;;;;;7.63;5.80;;;16.40;99.90;;;;;;5104344;27;20475;-63
2023/05/21 07:24:53;;;;;;;9.30;6.38;;;16.50;99.90;;;;;;5089207;27;20059;-64
2023/05/21 07:27:19;;;;;;;8.77;6.78;;;16.60;99.90;;;;;;5100951;28;20058;-63
2023/05/21 07:29:45;;;;;;;7.03;5.25;;;16.70;99.90;;;;;;5106416;27;20047;-63
2023/05/21 07:32:12;;;;;;;9.48;5.32;;;16.70;99.90;;;;;;5116426;27;20043;-63
2023/05/21 07:34:38;;;;;;;9.13;5.95;;;17.00;99.90;;;;;;5116058;27;20092;-64
2023/05/21 07:37:04;;;;;;;11.20;5.32;;;17.20;99.90;;;;;;5115660;27;20054;-63
2023/05/21 07:39:30;;;;;;;9.35;5.22;;;17.10;99.90;;;;;;5115980;27;20035;-62
2023/05/21 07:41:57;;;;;;;9.07;5.43;;;17.20;99.90;;;;;;5098816;27;20039;-63
2023/05/21 07:44:23;;;;;;;13.18;6.07;;;17.50;99.90;;;;;;5113479;27;20481;-63
2023/05/21 07:46:49;;;;;;;12.88;5.80;;;17.70;99.90;;;;;;5098858;27;20047;-63
2023/05/21 07:49:22;;;;;;;8.73;5.75;;;17.90;99.90;;;;;;5116925;27;20460;-63
2023/05/21 07:51:49;;;;;;;12.55;5.90;;;17.80;99.90;;;;;;5134639;27;20051;-62
2023/05/21 07:54:15;;;;;;;11.40;5.80;;;17.70;99.90;;;;;;5134337;27;20073;-64
2023/05/21 07:56:42;;;;;;;9.32;5.13;;;17.70;99.90;;;;;;5116087;27;20051;-65
2023/05/21 07:59:08;;;;;;;9.07;6.32;;;17.70;99.90;;;;;;5099788;27;20443;-62
2023/05/21 08:01:36;;;;;;;8.65;5.07;;;17.80;99.90;;;;;;5116132;27;20055;-63
2023/05/21 08:04:06;;;;;;;9.00;5.53;;;17.80;99.90;;;;;;5115968;27;20046;-63
2023/05/21 08:06:32;;;;;;;7.43;5.18;;;17.90;99.90;;;;;;5098489;27;20055;-62
2023/05/21 08:09:02;;;;;;;10.50;6.85;;;18.00;99.90;;;;;;5133962;27;20111;-63
2023/05/21 08:11:28;;;;;;;10.48;5.97;;;18.10;99.90;;;;;;5116070;27;20049;-63
2023/05/21 08:13:55;;;;;;;7.00;5.47;;;18.20;99.90;;;;;;5115701;27;20463;-64
2023/05/21 08:16:22;;;;;;;10.32;6.00;;;18.40;99.90;;;;;;5098460;27;20047;-65
2023/05/21 08:18:49;;;;;;;7.85;5.43;;;18.50;99.90;;;;;;5115640;27;20050;-63
2023/05/21 08:21:15;;;;;;;9.38;6.07;;;18.60;99.90;;;;;;5098431;27;20051;-63
2023/05/21 08:23:42;;;;;;;9.82;6.20;;;18.70;99.90;;;;;;5116220;27;20054;-62
2023/05/21 08:26:09;;;;;;;9.57;6.60;;;18.80;99.90;;;;;;5115292;27;20058;-63
2023/05/21 08:28:37;;;;;;;9.30;6.28;;;19.00;99.90;;;;;;5098578;27;20111;-63
2023/05/21 08:31:04;;;;;;;8.93;6.80;;;19.10;99.90;;;;;;5115719;27;20047;-63
2023/05/21 08:33:30;;;;;;;8.18;5.88;;;19.20;99.90;;;;;;5115696;27;20051;-62
2023/05/21 08:35:56;;;;;;;9.77;6.65;;;19.30;99.90;;;;;;5115023;27;20059;-62
2023/05/21 08:38:22;;;;;;;13.98;6.20;;;19.50;99.90;;;;;;5115737;27;20047;-64
2023/05/21 08:40:51;;;;;;;8.43;6.15;;;19.60;99.90;;;;;;5115346;27;20054;-63
2023/05/21 08:43:17;;;;;;;9.32;6.80;;;19.80;99.90;;;;;;5098719;28;20081;-63
2023/05/21 08:45:51;;;;;;;8.00;5.88;;;19.80;99.90;;;;;;5114919;27;20074;-64
2023/05/21 08:48:20;;;;;;;10.35;6.95;;;19.90;99.90;;;;;;5098348;27;20051;-64
2023/05/21 08:50:46;;;;;;;8.75;5.88;;;19.80;99.90;;;;;;5115000;27;20142;-63
2023/05/21 08:53:13;;;;;;;7.93;7.13;;;19.70;99.90;;;;;;5115214;28;20349;-65
2023/05/21 08:55:41;;;;;;;12.23;6.72;;;19.60;99.90;;;;;;5114880;28;20100;-64
2023/05/21 08:58:08;;;;;;;8.05;6.15;;;19.50;99.90;;;;;;5115379;28;20104;-63
2023/05/21 09:00:34;;;;;;;8.55;6.07;;;19.40;99.90;;;;;;5114990;28;20104;-64
2023/05/21 09:03:06;;;;;;;9.75;6.25;;;19.40;99.90;;;;;;5098613;28;20054;-62
2023/05/21 09:05:33;;;;;;;8.70;6.43;;;19.50;99.90;;;;;;5097947;28;20050;-62
2023/05/21 09:08:15;;;;;;;9.23;6.13;;;19.40;99.90;;;;;;5114974;28;20043;-63
2023/05/21 09:10:48;;;;;;;8.05;6.05;;;19.40;99.90;;;;;;5115393;28;20047;-64
2023/05/21 09:13:16;;;;;;;8.88;5.88;;;19.50;99.90;;;;;;5115136;28;20054;-64
2023/05/21 09:15:45;;;;;;;8.45;5.97;;;19.60;99.90;;;;;;5114668;28;20044;-64
2023/05/21 09:18:12;;;;;;;8.60;6.32;;;19.60;99.90;;;;;;5115636;27;20039;-62
2023/05/21 09:20:39;;;;;;;6.50;5.68;;;19.60;99.90;;;;;;5118924;27;20043;-63
2023/05/21 09:23:11;;;;;;;8.38;6.07;;;19.60;99.90;;;;;;5118779;27;20059;-64
2023/05/21 09:25:37;;;;;;;8.20;5.65;;;19.60;99.90;;;;;;5116171;27;20051;-63
2023/05/21 09:28:11;;;;;;;8.05;5.75;;;19.80;99.90;;;;;;5118136;27;20463;-63
2023/05/21 09:30:46;;;;;;;8.82;6.63;;;19.80;99.90;;;;;;5118593;27;20403;-64
2023/05/21 09:33:24;;;;;;;9.82;5.97;;;19.90;99.90;;;;;;5118236;27;20043;-64
2023/05/21 09:35:51;;;;;;;10.38;7.00;;;19.90;99.90;;;;;;5117516;27;20039;-63
2023/05/21 09:38:20;;;;;;;9.68;6.07;;;19.90;99.90;;;;;;5118234;27;20480;-64
2023/05/21 09:40:46;;;;;;;10.50;6.38;;;19.90;99.90;;;;;;5117617;27;20047;-63
2023/05/21 09:43:15;;;;;;;11.50;6.40;;;19.90;99.90;;;;;;5118621;27;20054;-64
2023/05/21 09:45:55;;;;;;;10.65;6.45;;;20.10;99.90;;;;;;5101503;27;20053;-62
2023/05/21 09:48:47;;;;;;;9.40;6.78;;;20.20;99.90;;;;;;5118304;27;20061;-64
2023/05/21 09:51:15;;;;;;;10.32;7.00;;;20.20;99.90;;;;;;5114071;27;20055;-64
2023/05/21 09:53:49;;;;;;;9.98;6.60;;;20.30;99.90;;;;;;5117832;27;20378;-62
2023/05/21 09:56:18;;;;;;;11.13;6.85;;;20.30;99.90;;;;;;5101163;27;20104;-63
2023/05/21 09:58:45;;;;;;;9.13;6.35;;;20.30;99.90;;;;;;5117495;27;20035;-63
2023/05/21 10:01:12;;;;;;;9.65;6.75;;;20.50;99.90;;;;;;5117873;27;20356;-62
2023/05/21 10:03:42;;;;;;;8.32;7.53;;;20.60;99.90;;;;;;5117761;27;20419;-63
2023/05/21 10:06:08;;;;;;;9.63;6.20;;;20.60;99.90;;;;;;5100319;27;20043;-63
2023/05/21 10:08:38;;;;;;;9.20;6.43;;;20.70;99.90;;;;;;5117449;27;20047;-62
2023/05/21 10:11:05;;;;;;;7.45;6.18;;;20.70;99.90;;;;;;5114897;27;20467;-64
2023/05/21 10:13:37;;;;;;;8.20;6.20;;;20.80;99.90;;;;;;5117479;27;20360;-62
2023/05/21 10:16:04;;;;;;;8.38;6.22;;;20.80;99.90;;;;;;5117781;27;20047;-64
2023/05/21 10:18:32;;;;;;;9.85;6.55;;;20.90;99.90;;;;;;5117290;27;20458;-62
2023/05/21 10:20:59;;;;;;;8.35;6.47;;;21.10;99.90;;;;;;5117533;27;20058;-62
2023/05/21 10:23:26;;;;;;;8.15;5.82;;;21.00;99.90;;;;;;5115263;27;20489;-64
2023/05/21 10:25:53;;;;;;;8.73;6.10;;;21.10;99.90;;;;;;5116699;27;20047;-62
2023/05/21 10:28:22;;;;;;;8.75;6.65;;;21.10;99.90;;;;;;5117177;27;20108;-62
2023/05/21 10:30:49;;;;;;;8.35;6.40;;;21.00;99.90;;;;;;5115730;27;20058;-64
2023/05/21 10:33:16;;;;;;;10.02;7.15;;;21.00;99.90;;;;;;5100399;27;20055;-63
2023/05/21 10:35:45;;;;;;;8.48;7.35;;;21.00;99.90;;;;;;5117425;27;20067;-62
2023/05/21 10:38:13;;;;;;;10.63;6.78;;;21.00;99.90;;;;;;5116824;27;20043;-62
2023/05/21 10:40:39;;;;;;;10.85;7.10;;;21.10;99.90;;;;;;5117370;27;20039;-62
2023/05/21 10:43:33;;;;;;;11.15;7.47;;;21.30;99.90;;;;;;5117035;27;20051;-62
2023/05/21 10:46:05;;;;;;;10.75;6.72;;;21.40;99.90;;;;;;5104042;27;20051;-62
2023/05/21 10:48:41;;;;;;;10.55;6.90;;;21.60;99.90;;;;;;5116683;27;20051;-62
2023/05/21 10:51:17;;;;;;;10.85;7.85;;;21.80;99.90;;;;;;5117263;27;20058;-63
2023/05/21 10:53:57;;;;;;;11.90;7.45;;;21.90;99.90;;;;;;5117320;27;20039;-64
2023/05/21 10:56:39;;;;;;;15.90;8.27;;;21.90;99.90;;;;;;5116881;27;20039;-63
2023/05/21 10:59:20;;;;;;;14.13;8.40;;;22.00;99.90;;;;;;5099975;27;20047;-62
2023/05/21 11:01:54;;;;;;;12.45;8.60;;;22.20;99.90;;;;;;5117343;27;20043;-63
2023/05/21 11:04:27;;;;;;;10.98;8.15;;;22.10;99.90;;;;;;5115689;27;20043;-64
2023/05/21 11:06:53;;;;;;;11.38;8.35;;;22.10;99.90;;;;;;5115144;27;20184;-63
2023/05/21 11:09:20;;;;;;;14.02;8.85;;;22.20;99.90;;;;;;5099411;27;20451;-64
2023/05/21 11:11:57;;;;;;;10.68;8.35;;;22.20;99.90;;;;;;5099819;27;20047;-64
2023/05/21 11:14:34;;;;;;;11.05;8.98;;;22.10;99.90;;;;;;5116713;27;20471;-64
2023/05/21 11:17:03;;;;;;;11.43;10.23;;;22.30;99.90;;;;;;5116520;27;20051;-63
2023/05/21 11:19:40;;;;;;;9.27;8.30;;;22.40;99.90;;;;;;5099346;27;20045;-62
2023/05/21 11:22:26;;;;;;;12.60;9.00;;;22.50;99.90;;;;;;5100127;27;20035;-63
2023/05/21 11:24:55;;;;;;;11.80;8.35;;;22.50;99.90;;;;;;5116193;27;20047;-63
2023/05/21 11:27:40;;;;;;;12.00;10.13;;;22.50;99.90;;;;;;5116929;27;20051;-62
2023/05/21 11:30:15;;;;;;;12.30;9.52;;;22.50;99.90;;;;;;5094101;28;20059;-62
2023/05/21 11:33:06;;;;;;;16.35;11.15;;;22.70;99.90;;;;;;5094693;28;20063;-62
2023/05/21 11:36:10;;;;;;;17.67;11.13;;;22.60;99.90;;;;;;5094416;28;20047;-62
2023/05/21 11:39:14;;;;;;;12.75;10.15;;;22.60;99.90;;;;;;5095664;28;20052;-62
2023/05/21 11:42:00;;;;;;;10.55;9.45;;;22.60;99.90;;;;;;5094539;28;20048;-62
2023/05/21 11:44:40;;;;;;;11.90;9.95;;;22.80;99.90;;;;;;5077785;28;20101;-62
2023/05/21 11:47:17;;;;;;;12.02;9.80;;;22.80;99.90;;;;;;5096223;28;20055;-62
2023/05/21 11:49:44;;;;;;;14.45;11.00;;;22.90;99.90;;;;;;5114493;28;20043;-62
2023/05/21 11:52:12;;;;;;;13.50;9.75;;;23.00;99.90;;;;;;5115159;28;20051;-62
2023/05/21 11:54:44;;;;;;;12.93;10.90;;;23.00;99.90;;;;;;5115998;28;20043;-62
2023/05/21 11:57:16;;;;;;;11.63;9.93;;;22.90;99.90;;;;;;5115131;28;20043;-62
2023/05/21 11:59:44;;;;;;;13.40;10.77;;;22.80;99.90;;;;;;5114439;28;20075;-62
2023/05/21 12:02:18;;;;;;;13.20;10.20;;;23.00;99.90;;;;;;5115664;28;20055;-62
2023/05/21 12:04:45;;;;;;;14.82;10.48;;;22.90;99.90;;;;;;5097418;28;20043;-62
2023/05/21 12:07:14;;;;;;;14.27;10.55;;;22.90;99.90;;;;;;5097776;28;20055;-62
2023/05/21 12:09:50;;;;;;;13.23;9.93;;;22.70;99.90;;;;;;5081807;28;20467;-62
2023/05/21 12:12:18;;;;;;;14.40;10.68;;;22.80;99.90;;;;;;5097436;28;20044;-63
2023/05/21 12:14:47;;;;;;;11.40;9.32;;;23.00;99.90;;;;;;5115241;28;20044;-62
2023/05/21 12:17:22;;;;;;;12.80;10.38;;;23.00;99.90;;;;;;5097216;28;20069;-62
2023/05/21 12:19:51;;;;;;;12.35;10.05;;;23.10;99.90;;;;;;5096594;28;20043;-63
2023/05/21 12:22:17;;;;;;;13.13;10.23;;;23.20;99.90;;;;;;5097421;28;20101;-64
2023/05/21 12:24:44;;;;;;;12.23;10.35;;;23.20;99.90;;;;;;5115165;28;20458;-62
2023/05/21 12:27:12;;;;;;;10.70;9.35;;;23.20;99.90;;;;;;5097692;28;20464;-62
2023/05/21 12:29:41;;;;;;;12.20;9.65;;;23.20;99.90;;;;;;5080001;28;20058;-64
2023/05/21 12:32:11;;;;;;;14.05;10.80;;;23.20;99.90;;;;;;5097128;28;20055;-64
2023/05/21 12:34:39;;;;;;;12.95;10.10;;;23.20;99.90;;;;;;5097616;28;20378;-62
2023/05/21 12:37:06;;;;;;;15.30;10.95;;;23.30;99.90;;;;;;5097153;28;20104;-62
2023/05/21 12:39:37;;;;;;;13.20;9.18;;;23.30;99.90;;;;;;5097431;28;20046;-62
2023/05/21 12:42:04;;;;;;;14.23;10.63;;;23.30;99.90;;;;;;5080521;28;20040;-62
2023/05/21 12:44:31;;;;;;;12.23;10.93;;;23.20;99.90;;;;;;5096868;28;20387;-63
2023/05/21 12:46:58;;;;;;;10.07;8.88;;;23.20;99.90;;;;;;5097072;28;20044;-62
2023/05/21 12:49:35;;;;;;;15.15;10.35;;;23.20;99.90;;;;;;5114567;28;20391;-62